sensor_id;sensor_type;location;lat;lon;timestamp;temperature;humidity
22006;DHT22;11167;46.988;15.470;2023-02-04T00:00:28;8.50;86.20
22006;DHT22;11167;46.988;15.470;2023-02-04T00:02:30;8.50;86.20
22006;DHT22;11167;46.988;15.470;2023-02-04T00:04:31;8.50;86.20
22006;DHT22;11167;46.988;15.470;2023-02-04T00:06:32;8.50;86.20
22006;DHT22;11167;46.988;15.470;2023-02-04T00:08:33;8.50;86.20
22006;DHT22;11167;46.988;15.470;2023-02-04T00:10:36;8.50;86.20
22006;DHT22;11167;46.988;15.470;2023-02-04T00:12:39;8.40;86.00
22006;DHT22;11167;46.988;15.470;2023-02-04T00:14:40;8.40;86.00
22006;DHT22;11167;46.988;15.470;2023-02-04T00:16:42;8.40;86.00
22006;DHT22;11167;46.988;15.470;2023-02-04T00:18:43;8.40;86.00
22006;DHT22;11167;46.988;15.470;2023-02-04T00:20:44;8.40;86.00
22006;DHT22;11167;46.988;15.470;2023-02-04T00:22:45;8.40;86.00
22006;DHT22;11167;46.988;15.470;2023-02-04T00:24:47;8.30;86.00
22006;DHT22;11167;46.988;15.470;2023-02-04T00:26:50;8.30;86.00
22006;DHT22;11167;46.988;15.470;2023-02-04T00:28:51;8.30;85.90
22006;DHT22;11167;46.988;15.470;2023-02-04T00:30:52;8.30;85.90
22006;DHT22;11167;46.988;15.470;2023-02-04T00:32:53;8.30;85.90
22006;DHT22;11167;46.988;15.470;2023-02-04T00:34:56;8.30;85.80
22006;DHT22;11167;46.988;15.470;2023-02-04T00:36:57;8.30;85.80
22006;DHT22;11167;46.988;15.470;2023-02-04T00:38:58;8.30;85.80
22006;DHT22;11167;46.988;15.470;2023-02-04T00:40:59;8.20;86.60
22006;DHT22;11167;46.988;15.470;2023-02-04T00:43:01;8.20;85.80
22006;DHT22;11167;46.988;15.470;2023-02-04T00:45:02;8.20;85.80
22006;DHT22;11167;46.988;15.470;2023-02-04T00:47:03;8.20;85.80
22006;DHT22;11167;46.988;15.470;2023-02-04T00:49:05;8.20;85.70
22006;DHT22;11167;46.988;15.470;2023-02-04T00:51:08;8.20;85.70
22006;DHT22;11167;46.988;15.470;2023-02-04T00:53:09;8.10;85.60
22006;DHT22;11167;46.988;15.470;2023-02-04T00:55:11;8.10;86.40
22006;DHT22;11167;46.988;15.470;2023-02-04T00:57:12;8.10;85.60
22006;DHT22;11167;46.988;15.470;2023-02-04T00:59:13;8.10;85.60
22006;DHT22;11167;46.988;15.470;2023-02-04T01:01:14;8.10;85.60
22006;DHT22;11167;46.988;15.470;2023-02-04T01:03:17;8.00;85.50
22006;DHT22;11167;46.988;15.470;2023-02-04T01:05:18;8.00;85.40
22006;DHT22;11167;46.988;15.470;2023-02-04T01:07:19;8.00;85.40
22006;DHT22;11167;46.988;15.470;2023-02-04T01:09:20;8.00;85.40
22006;DHT22;11167;46.988;15.470;2023-02-04T01:11:21;8.00;85.40
22006;DHT22;11167;46.988;15.470;2023-02-04T01:13:22;7.90;85.40
22006;DHT22;11167;46.988;15.470;2023-02-04T01:15:23;7.90;85.40
22006;DHT22;11167;46.988;15.470;2023-02-04T01:17:25;7.90;85.40
22006;DHT22;11167;46.988;15.470;2023-02-04T01:19:26;7.90;85.40
22006;DHT22;11167;46.988;15.470;2023-02-04T01:21:27;7.90;85.30
22006;DHT22;11167;46.988;15.470;2023-02-04T01:23:28;7.90;85.40
22006;DHT22;11167;46.988;15.470;2023-02-04T01:25:29;7.80;85.30
22006;DHT22;11167;46.988;15.470;2023-02-04T01:27:30;7.80;85.30
22006;DHT22;11167;46.988;15.470;2023-02-04T01:29:31;7.80;85.30
22006;DHT22;11167;46.988;15.470;2023-02-04T01:31:33;7.80;85.30
22006;DHT22;11167;46.988;15.470;2023-02-04T01:33:34;7.80;85.30
22006;DHT22;11167;46.988;15.470;2023-02-04T01:35:35;7.70;85.20
22006;DHT22;11167;46.988;15.470;2023-02-04T01:37:36;7.70;85.20
22006;DHT22;11167;46.988;15.470;2023-02-04T01:39:37;7.70;85.20
22006;DHT22;11167;46.988;15.470;2023-02-04T01:41:39;7.70;85.10
22006;DHT22;11167;46.988;15.470;2023-02-04T01:43:40;7.70;85.10
22006;DHT22;11167;46.988;15.470;2023-02-04T01:45:41;7.70;85.20
22006;DHT22;11167;46.988;15.470;2023-02-04T01:47:43;7.60;85.10
22006;DHT22;11167;46.988;15.470;2023-02-04T01:49:47;7.60;85.10
22006;DHT22;11167;46.988;15.470;2023-02-04T01:51:49;7.60;85.10
22006;DHT22;11167;46.988;15.470;2023-02-04T01:53:51;7.60;85.10
22006;DHT22;11167;46.988;15.470;2023-02-04T01:55:52;7.60;85.10
22006;DHT22;11167;46.988;15.470;2023-02-04T01:57:53;7.50;85.10
22006;DHT22;11167;46.988;15.470;2023-02-04T01:59:57;7.50;85.00
22006;DHT22;11167;46.988;15.470;2023-02-04T02:01:58;7.50;85.00
22006;DHT22;11167;46.988;15.470;2023-02-04T02:04:00;7.50;85.90
22006;DHT22;11167;46.988;15.470;2023-02-04T02:06:01;7.50;85.10
22006;DHT22;11167;46.988;15.470;2023-02-04T02:08:04;7.40;85.00
22006;DHT22;11167;46.988;15.470;2023-02-04T02:10:07;7.40;85.00
22006;DHT22;11167;46.988;15.470;2023-02-04T02:12:09;7.40;85.00
22006;DHT22;11167;46.988;15.470;2023-02-04T02:14:10;7.40;84.90
22006;DHT22;11167;46.988;15.470;2023-02-04T02:16:12;7.40;85.00
22006;DHT22;11167;46.988;15.470;2023-02-04T02:18:13;7.40;85.00
22006;DHT22;11167;46.988;15.470;2023-02-04T02:20:17;7.30;85.00
22006;DHT22;11167;46.988;15.470;2023-02-04T02:22:32;7.30;84.90
22006;DHT22;11167;46.988;15.470;2023-02-04T02:24:32;7.30;84.90
22006;DHT22;11167;46.988;15.470;2023-02-04T02:26:34;7.30;84.90
22006;DHT22;11167;46.988;15.470;2023-02-04T02:28:35;7.30;84.90
22006;DHT22;11167;46.988;15.470;2023-02-04T02:30:37;7.30;85.00
22006;DHT22;11167;46.988;15.470;2023-02-04T02:32:38;7.20;85.00
22006;DHT22;11167;46.988;15.470;2023-02-04T02:34:42;7.20;84.90
22006;DHT22;11167;46.988;15.470;2023-02-04T02:36:44;7.20;84.90
22006;DHT22;11167;46.988;15.470;2023-02-04T02:38:45;7.20;84.80
22006;DHT22;11167;46.988;15.470;2023-02-04T02:40:48;7.20;84.80
22006;DHT22;11167;46.988;15.470;2023-02-04T02:42:52;7.20;85.10
22006;DHT22;11167;46.988;15.470;2023-02-04T02:44:53;7.10;84.80
22006;DHT22;11167;46.988;15.470;2023-02-04T02:46:55;7.10;84.80
22006;DHT22;11167;46.988;15.470;2023-02-04T02:48:56;7.10;84.80
22006;DHT22;11167;46.988;15.470;2023-02-04T02:50:57;7.10;85.40
22006;DHT22;11167;46.988;15.470;2023-02-04T02:52:58;7.10;84.80
22006;DHT22;11167;46.988;15.470;2023-02-04T02:54:59;7.00;84.80
22006;DHT22;11167;46.988;15.470;2023-02-04T02:57:01;7.00;84.80
22006;DHT22;11167;46.988;15.470;2023-02-04T02:59:13;7.00;84.90
22006;DHT22;11167;46.988;15.470;2023-02-04T03:01:15;7.00;85.70
22006;DHT22;11167;46.988;15.470;2023-02-04T03:03:19;7.00;84.80
22006;DHT22;11167;46.988;15.470;2023-02-04T03:05:23;7.00;84.80
22006;DHT22;11167;46.988;15.470;2023-02-04T03:07:24;6.90;84.70
22006;DHT22;11167;46.988;15.470;2023-02-04T03:09:26;6.90;84.80
22006;DHT22;11167;46.988;15.470;2023-02-04T03:11:29;6.90;84.80
22006;DHT22;11167;46.988;15.470;2023-02-04T03:13:32;6.90;84.80
22006;DHT22;11167;46.988;15.470;2023-02-04T03:15:34;6.90;84.80
22006;DHT22;11167;46.988;15.470;2023-02-04T03:17:35;6.90;84.80
22006;DHT22;11167;46.988;15.470;2023-02-04T03:19:37;6.90;84.80
22006;DHT22;11167;46.988;15.470;2023-02-04T03:21:39;6.90;84.80
22006;DHT22;11167;46.988;15.470;2023-02-04T03:23:41;6.80;84.70
22006;DHT22;11167;46.988;15.470;2023-02-04T03:25:42;6.80;84.80
22006;DHT22;11167;46.988;15.470;2023-02-04T03:27:43;6.80;84.70
22006;DHT22;11167;46.988;15.470;2023-02-04T03:29:44;6.80;84.70
22006;DHT22;11167;46.988;15.470;2023-02-04T03:31:46;6.80;84.70
22006;DHT22;11167;46.988;15.470;2023-02-04T03:33:47;6.80;84.70
22006;DHT22;11167;46.988;15.470;2023-02-04T03:35:51;6.80;85.70
22006;DHT22;11167;46.988;15.470;2023-02-04T03:37:52;6.70;84.50
22006;DHT22;11167;46.988;15.470;2023-02-04T03:39:53;6.70;84.70
22006;DHT22;11167;46.988;15.470;2023-02-04T03:41:54;6.70;84.70
22006;DHT22;11167;46.988;15.470;2023-02-04T03:43:55;6.70;84.70
22006;DHT22;11167;46.988;15.470;2023-02-04T03:45:56;6.70;84.70
22006;DHT22;11167;46.988;15.470;2023-02-04T03:47:58;6.70;84.70
22006;DHT22;11167;46.988;15.470;2023-02-04T03:50:03;6.70;84.70
22006;DHT22;11167;46.988;15.470;2023-02-04T03:52:04;6.80;84.70
22006;DHT22;11167;46.988;15.470;2023-02-04T03:54:06;6.60;84.60
22006;DHT22;11167;46.988;15.470;2023-02-04T03:56:07;6.60;84.60
22006;DHT22;11167;46.988;15.470;2023-02-04T03:58:08;6.60;85.60
22006;DHT22;11167;46.988;15.470;2023-02-04T04:00:10;6.60;84.60
22006;DHT22;11167;46.988;15.470;2023-02-04T04:02:13;6.50;84.50
22006;DHT22;11167;46.988;15.470;2023-02-04T04:04:15;6.60;84.60
22006;DHT22;11167;46.988;15.470;2023-02-04T04:06:16;6.50;84.50
22006;DHT22;11167;46.988;15.470;2023-02-04T04:08:17;6.50;84.50
22006;DHT22;11167;46.988;15.470;2023-02-04T04:10:20;6.50;84.50
22006;DHT22;11167;46.988;15.470;2023-02-04T04:12:21;6.50;84.50
22006;DHT22;11167;46.988;15.470;2023-02-04T04:14:22;6.50;84.50
22006;DHT22;11167;46.988;15.470;2023-02-04T04:16:23;6.50;84.50
22006;DHT22;11167;46.988;15.470;2023-02-04T04:18:25;6.40;84.50
22006;DHT22;11167;46.988;15.470;2023-02-04T04:20:26;6.40;84.70
22006;DHT22;11167;46.988;15.470;2023-02-04T04:22:28;6.40;84.50
22006;DHT22;11167;46.988;15.470;2023-02-04T04:24:29;6.40;84.40
22006;DHT22;11167;46.988;15.470;2023-02-04T04:26:31;6.40;84.30
22006;DHT22;11167;46.988;15.470;2023-02-04T04:28:32;6.40;84.30
22006;DHT22;11167;46.988;15.470;2023-02-04T04:30:33;6.40;84.30
22006;DHT22;11167;46.988;15.470;2023-02-04T04:32:34;6.40;84.30
22006;DHT22;11167;46.988;15.470;2023-02-04T04:34:35;6.30;83.70
22006;DHT22;11167;46.988;15.470;2023-02-04T04:36:36;6.30;84.50
22006;DHT22;11167;46.988;15.470;2023-02-04T04:38:37;6.30;84.20
22006;DHT22;11167;46.988;15.470;2023-02-04T04:40:39;6.30;84.20
22006;DHT22;11167;46.988;15.470;2023-02-04T04:42:40;6.30;84.20
22006;DHT22;11167;46.988;15.470;2023-02-04T04:44:41;6.30;84.40
22006;DHT22;11167;46.988;15.470;2023-02-04T04:46:42;6.30;84.30
22006;DHT22;11167;46.988;15.470;2023-02-04T04:48:43;6.30;84.30
22006;DHT22;11167;46.988;15.470;2023-02-04T04:50:44;6.30;84.30
22006;DHT22;11167;46.988;15.470;2023-02-04T04:52:46;6.30;84.30
22006;DHT22;11167;46.988;15.470;2023-02-04T04:54:47;6.30;84.30
22006;DHT22;11167;46.988;15.470;2023-02-04T04:56:48;6.30;84.40
22006;DHT22;11167;46.988;15.470;2023-02-04T04:58:49;6.30;84.40
22006;DHT22;11167;46.988;15.470;2023-02-04T05:00:50;6.30;84.40
22006;DHT22;11167;46.988;15.470;2023-02-04T05:02:51;6.30;84.40
22006;DHT22;11167;46.988;15.470;2023-02-04T05:04:53;6.30;84.50
22006;DHT22;11167;46.988;15.470;2023-02-04T05:06:54;6.30;84.50
22006;DHT22;11167;46.988;15.470;2023-02-04T05:08:55;6.30;84.50
22006;DHT22;11167;46.988;15.470;2023-02-04T05:10:57;6.30;84.50
22006;DHT22;11167;46.988;15.470;2023-02-04T05:12:58;6.30;84.60
22006;DHT22;11167;46.988;15.470;2023-02-04T05:14:59;6.30;84.60
22006;DHT22;11167;46.988;15.470;2023-02-04T05:17:00;6.30;84.60
22006;DHT22;11167;46.988;15.470;2023-02-04T05:19:01;6.30;84.60
22006;DHT22;11167;46.988;15.470;2023-02-04T05:21:03;6.30;84.60
22006;DHT22;11167;46.988;15.470;2023-02-04T05:23:04;6.30;84.60
22006;DHT22;11167;46.988;15.470;2023-02-04T05:25:05;6.30;84.80
22006;DHT22;11167;46.988;15.470;2023-02-04T05:27:07;6.30;84.60
22006;DHT22;11167;46.988;15.470;2023-02-04T05:29:08;6.30;84.70
22006;DHT22;11167;46.988;15.470;2023-02-04T05:31:10;6.30;84.70
22006;DHT22;11167;46.988;15.470;2023-02-04T05:33:11;6.30;84.70
22006;DHT22;11167;46.988;15.470;2023-02-04T05:35:12;6.30;84.80
22006;DHT22;11167;46.988;15.470;2023-02-04T05:37:13;6.30;84.80
22006;DHT22;11167;46.988;15.470;2023-02-04T05:39:15;6.30;84.80
22006;DHT22;11167;46.988;15.470;2023-02-04T05:41:16;6.40;84.90
22006;DHT22;11167;46.988;15.470;2023-02-04T05:43:17;6.40;84.90
22006;DHT22;11167;46.988;15.470;2023-02-04T05:45:18;6.40;84.90
22006;DHT22;11167;46.988;15.470;2023-02-04T05:47:19;6.40;84.90
22006;DHT22;11167;46.988;15.470;2023-02-04T05:49:21;6.40;84.90
22006;DHT22;11167;46.988;15.470;2023-02-04T05:51:23;6.40;85.00
22006;DHT22;11167;46.988;15.470;2023-02-04T05:53:24;6.40;84.90
22006;DHT22;11167;46.988;15.470;2023-02-04T05:55:45;6.40;85.80
22006;DHT22;11167;46.988;15.470;2023-02-04T05:57:46;6.30;84.80
22006;DHT22;11167;46.988;15.470;2023-02-04T05:59:47;6.40;84.90
22006;DHT22;11167;46.988;15.470;2023-02-04T06:01:49;6.40;84.70
22006;DHT22;11167;46.988;15.470;2023-02-04T06:03:50;6.40;84.70
22006;DHT22;11167;46.988;15.470;2023-02-04T06:05:54;6.40;84.70
22006;DHT22;11167;46.988;15.470;2023-02-04T06:07:55;6.40;84.70
22006;DHT22;11167;46.988;15.470;2023-02-04T06:09:56;6.40;84.70
22006;DHT22;11167;46.988;15.470;2023-02-04T06:11:57;6.40;84.60
22006;DHT22;11167;46.988;15.470;2023-02-04T06:13:59;6.40;84.60
22006;DHT22;11167;46.988;15.470;2023-02-04T06:16:00;6.40;84.50
22006;DHT22;11167;46.988;15.470;2023-02-04T06:18:01;6.40;84.50
22006;DHT22;11167;46.988;15.470;2023-02-04T06:20:02;6.40;84.50
22006;DHT22;11167;46.988;15.470;2023-02-04T06:22:04;6.40;84.50
22006;DHT22;11167;46.988;15.470;2023-02-04T06:24:05;6.40;84.50
22006;DHT22;11167;46.988;15.470;2023-02-04T06:26:06;6.40;84.50
22006;DHT22;11167;46.988;15.470;2023-02-04T06:28:07;6.40;85.20
22006;DHT22;11167;46.988;15.470;2023-02-04T06:30:09;6.40;84.30
22006;DHT22;11167;46.988;15.470;2023-02-04T06:32:11;6.40;84.30
22006;DHT22;11167;46.988;15.470;2023-02-04T06:34:12;6.40;85.00
22006;DHT22;11167;46.988;15.470;2023-02-04T06:36:13;6.40;84.40
22006;DHT22;11167;46.988;15.470;2023-02-04T06:38:14;6.40;84.30
22006;DHT22;11167;46.988;15.470;2023-02-04T06:40:16;6.40;84.30
22006;DHT22;11167;46.988;15.470;2023-02-04T06:42:17;6.40;84.30
22006;DHT22;11167;46.988;15.470;2023-02-04T06:44:25;6.40;84.30
22006;DHT22;11167;46.988;15.470;2023-02-04T06:46:26;6.40;84.30
22006;DHT22;11167;46.988;15.470;2023-02-04T06:48:27;6.40;84.30
22006;DHT22;11167;46.988;15.470;2023-02-04T06:50:29;6.40;84.30
22006;DHT22;11167;46.988;15.470;2023-02-04T06:52:30;6.40;84.30
22006;DHT22;11167;46.988;15.470;2023-02-04T06:54:31;6.50;84.50
22006;DHT22;11167;46.988;15.470;2023-02-04T06:56:32;6.50;84.50
22006;DHT22;11167;46.988;15.470;2023-02-04T06:58:33;6.50;84.50
22006;DHT22;11167;46.988;15.470;2023-02-04T07:00:34;6.50;84.50
22006;DHT22;11167;46.988;15.470;2023-02-04T07:02:36;6.50;84.50
22006;DHT22;11167;46.988;15.470;2023-02-04T07:04:39;6.50;84.50
22006;DHT22;11167;46.988;15.470;2023-02-04T07:06:41;6.50;84.50
22006;DHT22;11167;46.988;15.470;2023-02-04T07:08:42;6.50;84.50
22006;DHT22;11167;46.988;15.470;2023-02-04T07:10:44;6.50;84.50
22006;DHT22;11167;46.988;15.470;2023-02-04T07:12:45;6.60;84.60
22006;DHT22;11167;46.988;15.470;2023-02-04T07:14:47;6.50;84.60
22006;DHT22;11167;46.988;15.470;2023-02-04T07:16:48;6.60;84.70
22006;DHT22;11167;46.988;15.470;2023-02-04T07:18:49;6.50;84.60
22006;DHT22;11167;46.988;15.470;2023-02-04T07:20:50;6.60;84.70
22006;DHT22;11167;46.988;15.470;2023-02-04T07:22:51;6.60;84.70
22006;DHT22;11167;46.988;15.470;2023-02-04T07:24:52;6.60;84.70
22006;DHT22;11167;46.988;15.470;2023-02-04T07:26:53;6.60;85.60
22006;DHT22;11167;46.988;15.470;2023-02-04T07:28:55;6.60;84.80
22006;DHT22;11167;46.988;15.470;2023-02-04T07:30:56;6.60;84.80
22006;DHT22;11167;46.988;15.470;2023-02-04T07:32:57;6.60;84.80
22006;DHT22;11167;46.988;15.470;2023-02-04T07:34:59;6.60;84.80
22006;DHT22;11167;46.988;15.470;2023-02-04T07:37:00;6.60;85.60
22006;DHT22;11167;46.988;15.470;2023-02-04T07:39:01;6.60;84.90
22006;DHT22;11167;46.988;15.470;2023-02-04T07:41:03;6.60;84.90
22006;DHT22;11167;46.988;15.470;2023-02-04T07:43:04;6.60;84.80
22006;DHT22;11167;46.988;15.470;2023-02-04T07:45:06;6.60;84.90
22006;DHT22;11167;46.988;15.470;2023-02-04T07:47:07;6.60;84.80
22006;DHT22;11167;46.988;15.470;2023-02-04T07:49:08;6.60;84.90
22006;DHT22;11167;46.988;15.470;2023-02-04T07:51:09;6.60;84.90
22006;DHT22;11167;46.988;15.470;2023-02-04T07:53:11;6.60;84.90
22006;DHT22;11167;46.988;15.470;2023-02-04T07:55:12;6.60;84.90
22006;DHT22;11167;46.988;15.470;2023-02-04T07:57:13;6.60;85.00
22006;DHT22;11167;46.988;15.470;2023-02-04T07:59:14;6.60;85.00
22006;DHT22;11167;46.988;15.470;2023-02-04T08:01:15;6.60;84.90
22006;DHT22;11167;46.988;15.470;2023-02-04T08:03:16;6.60;84.90
22006;DHT22;11167;46.988;15.470;2023-02-04T08:05:17;6.60;85.00
22006;DHT22;11167;46.988;15.470;2023-02-04T08:07:19;6.60;85.00
22006;DHT22;11167;46.988;15.470;2023-02-04T08:09:20;6.60;85.00
22006;DHT22;11167;46.988;15.470;2023-02-04T08:11:22;6.60;85.00
22006;DHT22;11167;46.988;15.470;2023-02-04T08:13:23;6.50;85.00
22006;DHT22;11167;46.988;15.470;2023-02-04T08:15:25;6.60;85.00
22006;DHT22;11167;46.988;15.470;2023-02-04T08:17:27;6.60;85.00
22006;DHT22;11167;46.988;15.470;2023-02-04T08:19:28;6.60;85.10
22006;DHT22;11167;46.988;15.470;2023-02-04T08:21:29;6.60;85.10
22006;DHT22;11167;46.988;15.470;2023-02-04T08:23:31;6.60;85.10
22006;DHT22;11167;46.988;15.470;2023-02-04T08:25:32;6.60;85.20
22006;DHT22;11167;46.988;15.470;2023-02-04T08:27:34;6.60;85.10
22006;DHT22;11167;46.988;15.470;2023-02-04T08:29:35;6.60;85.20
22006;DHT22;11167;46.988;15.470;2023-02-04T08:31:36;6.60;85.20
22006;DHT22;11167;46.988;15.470;2023-02-04T08:33:38;6.60;85.10
22006;DHT22;11167;46.988;15.470;2023-02-04T08:35:39;6.60;85.20
22006;DHT22;11167;46.988;15.470;2023-02-04T08:37:40;6.60;85.10
22006;DHT22;11167;46.988;15.470;2023-02-04T08:39:41;6.60;85.10
22006;DHT22;11167;46.988;15.470;2023-02-04T08:41:44;6.60;85.20
22006;DHT22;11167;46.988;15.470;2023-02-04T08:43:46;6.60;85.20
22006;DHT22;11167;46.988;15.470;2023-02-04T08:45:47;6.60;85.30
22006;DHT22;11167;46.988;15.470;2023-02-04T08:47:48;6.60;85.40
22006;DHT22;11167;46.988;15.470;2023-02-04T08:49:49;6.70;85.50
22006;DHT22;11167;46.988;15.470;2023-02-04T08:51:50;6.70;85.60
22006;DHT22;11167;46.988;15.470;2023-02-04T08:53:53;6.70;85.60
22006;DHT22;11167;46.988;15.470;2023-02-04T08:55:55;6.70;85.60
22006;DHT22;11167;46.988;15.470;2023-02-04T08:57:56;6.70;85.60
22006;DHT22;11167;46.988;15.470;2023-02-04T08:59:58;6.70;85.70
22006;DHT22;11167;46.988;15.470;2023-02-04T09:02:00;6.70;85.70
22006;DHT22;11167;46.988;15.470;2023-02-04T09:04:02;6.80;85.60
22006;DHT22;11167;46.988;15.470;2023-02-04T09:06:05;6.80;85.80
22006;DHT22;11167;46.988;15.470;2023-02-04T09:08:06;6.80;86.00
22006;DHT22;11167;46.988;15.470;2023-02-04T09:10:07;6.80;85.90
22006;DHT22;11167;46.988;15.470;2023-02-04T09:12:08;6.80;85.90
22006;DHT22;11167;46.988;15.470;2023-02-04T09:14:10;6.90;86.00
22006;DHT22;11167;46.988;15.470;2023-02-04T09:16:11;6.90;85.80
22006;DHT22;11167;46.988;15.470;2023-02-04T09:18:12;6.90;85.70
22006;DHT22;11167;46.988;15.470;2023-02-04T09:20:19;6.90;85.70
22006;DHT22;11167;46.988;15.470;2023-02-04T09:22:21;6.90;85.40
22006;DHT22;11167;46.988;15.470;2023-02-04T09:24:22;6.90;85.20
22006;DHT22;11167;46.988;15.470;2023-02-04T09:26:23;6.90;85.20
22006;DHT22;11167;46.988;15.470;2023-02-04T09:28:25;6.90;85.20
22006;DHT22;11167;46.988;15.470;2023-02-04T09:30:26;7.00;85.30
22006;DHT22;11167;46.988;15.470;2023-02-04T09:32:28;7.00;85.20
22006;DHT22;11167;46.988;15.470;2023-02-04T09:34:29;7.00;85.10
22006;DHT22;11167;46.988;15.470;2023-02-04T09:36:30;7.10;85.30
22006;DHT22;11167;46.988;15.470;2023-02-04T09:38:33;7.10;85.00
22006;DHT22;11167;46.988;15.470;2023-02-04T09:40:39;7.10;85.00
22006;DHT22;11167;46.988;15.470;2023-02-04T09:42:39;7.10;85.00
22006;DHT22;11167;46.988;15.470;2023-02-04T09:44:40;7.20;85.10
22006;DHT22;11167;46.988;15.470;2023-02-04T09:46:46;7.20;85.00
22006;DHT22;11167;46.988;15.470;2023-02-04T09:48:47;7.20;85.00
22006;DHT22;11167;46.988;15.470;2023-02-04T09:50:52;7.30;85.30
22006;DHT22;11167;46.988;15.470;2023-02-04T09:52:56;7.30;85.20
22006;DHT22;11167;46.988;15.470;2023-02-04T09:54:59;7.30;85.10
22006;DHT22;11167;46.988;15.470;2023-02-04T09:57:00;7.30;85.10
22006;DHT22;11167;46.988;15.470;2023-02-04T09:59:09;7.40;85.10
22006;DHT22;11167;46.988;15.470;2023-02-04T10:03:17;7.40;85.10
22006;DHT22;11167;46.988;15.470;2023-02-04T10:05:32;7.40;85.10
22006;DHT22;11167;46.988;15.470;2023-02-04T10:07:31;7.50;85.10
22006;DHT22;11167;46.988;15.470;2023-02-04T10:09:33;7.50;85.00
22006;DHT22;11167;46.988;15.470;2023-02-04T10:11:36;7.50;85.10
22006;DHT22;11167;46.988;15.470;2023-02-04T10:13:44;7.60;85.30
22006;DHT22;11167;46.988;15.470;2023-02-04T10:15:46;7.60;85.00
22006;DHT22;11167;46.988;15.470;2023-02-04T10:18:02;7.60;85.10
22006;DHT22;11167;46.988;15.470;2023-02-04T10:20:11;7.70;85.00
22006;DHT22;11167;46.988;15.470;2023-02-04T10:22:18;7.70;85.10
22006;DHT22;11167;46.988;15.470;2023-02-04T10:24:21;7.70;85.30
22006;DHT22;11167;46.988;15.470;2023-02-04T10:26:27;7.80;85.30
22006;DHT22;11167;46.988;15.470;2023-02-04T10:28:34;7.80;85.50
22006;DHT22;11167;46.988;15.470;2023-02-04T10:30:40;7.80;85.30
22006;DHT22;11167;46.988;15.470;2023-02-04T10:32:43;7.90;85.40
22006;DHT22;11167;46.988;15.470;2023-02-04T10:34:45;7.90;85.30
22006;DHT22;11167;46.988;15.470;2023-02-04T10:36:51;7.90;85.30
22006;DHT22;11167;46.988;15.470;2023-02-04T10:39:04;8.00;85.40
22006;DHT22;11167;46.988;15.470;2023-02-04T10:41:05;8.00;85.40
22006;DHT22;11167;46.988;15.470;2023-02-04T10:45:31;8.10;85.40
22006;DHT22;11167;46.988;15.470;2023-02-04T10:47:32;8.10;85.20
22006;DHT22;11167;46.988;15.470;2023-02-04T10:49:35;8.10;85.30
22006;DHT22;11167;46.988;15.470;2023-02-04T10:51:37;8.20;85.30
22006;DHT22;11167;46.988;15.470;2023-02-04T10:53:38;8.20;85.20
22006;DHT22;11167;46.988;15.470;2023-02-04T10:55:57;8.20;85.20
22006;DHT22;11167;46.988;15.470;2023-02-04T10:57:59;8.30;85.20
22006;DHT22;11167;46.988;15.470;2023-02-04T11:00:04;8.30;85.50
22006;DHT22;11167;46.988;15.470;2023-02-04T11:04:35;8.30;85.00
22006;DHT22;11167;46.988;15.470;2023-02-04T11:06:36;8.40;84.90
22006;DHT22;11167;46.988;15.470;2023-02-04T11:08:38;8.40;85.00
22006;DHT22;11167;46.988;15.470;2023-02-04T11:10:40;8.40;85.10
22006;DHT22;11167;46.988;15.470;2023-02-04T11:12:45;8.50;85.00
22006;DHT22;11167;46.988;15.470;2023-02-04T11:14:55;8.50;85.00
22006;DHT22;11167;46.988;15.470;2023-02-04T11:16:56;8.50;84.90
22006;DHT22;11167;46.988;15.470;2023-02-04T11:19:08;8.50;85.00
22006;DHT22;11167;46.988;15.470;2023-02-04T11:21:40;8.60;85.00
22006;DHT22;11167;46.988;15.470;2023-02-04T11:23:29;8.60;84.90
22006;DHT22;11167;46.988;15.470;2023-02-04T11:25:35;8.60;84.80
22006;DHT22;11167;46.988;15.470;2023-02-04T11:27:39;8.60;84.90
22006;DHT22;11167;46.988;15.470;2023-02-04T11:29:40;8.70;84.80
22006;DHT22;11167;46.988;15.470;2023-02-04T11:34:52;8.70;84.50
22006;DHT22;11167;46.988;15.470;2023-02-04T11:36:06;8.80;84.60
22006;DHT22;11167;46.988;15.470;2023-02-04T11:38:21;8.80;83.90
22006;DHT22;11167;46.988;15.470;2023-02-04T11:42:40;8.80;84.60
22006;DHT22;11167;46.988;15.470;2023-02-04T11:44:47;8.90;84.60
22006;DHT22;11167;46.988;15.470;2023-02-04T11:46:53;8.90;84.70
22006;DHT22;11167;46.988;15.470;2023-02-04T11:48:57;8.90;84.80
22006;DHT22;11167;46.988;15.470;2023-02-04T11:51:01;9.00;84.60
22006;DHT22;11167;46.988;15.470;2023-02-04T11:53:03;9.00;84.40
22006;DHT22;11167;46.988;15.470;2023-02-04T11:55:04;9.10;84.20
22006;DHT22;11167;46.988;15.470;2023-02-04T11:57:05;9.10;84.30
22006;DHT22;11167;46.988;15.470;2023-02-04T11:59:09;9.10;84.50
22006;DHT22;11167;46.988;15.470;2023-02-04T12:01:30;9.10;83.60
22006;DHT22;11167;46.988;15.470;2023-02-04T12:03:27;9.10;83.60
22006;DHT22;11167;46.988;15.470;2023-02-04T12:05:40;9.20;83.60
22006;DHT22;11167;46.988;15.470;2023-02-04T12:07:42;9.20;83.60
22006;DHT22;11167;46.988;15.470;2023-02-04T12:09:47;9.20;83.30
22006;DHT22;11167;46.988;15.470;2023-02-04T12:11:53;9.20;83.10
22006;DHT22;11167;46.988;15.470;2023-02-04T12:13:58;9.30;82.80
22006;DHT22;11167;46.988;15.470;2023-02-04T12:16:02;9.30;82.90
22006;DHT22;11167;46.988;15.470;2023-02-04T12:18:08;9.30;83.20
22006;DHT22;11167;46.988;15.470;2023-02-04T12:20:12;9.30;82.90
22006;DHT22;11167;46.988;15.470;2023-02-04T12:22:14;9.40;83.00
22006;DHT22;11167;46.988;15.470;2023-02-04T12:24:15;9.40;82.70
22006;DHT22;11167;46.988;15.470;2023-02-04T12:26:16;9.40;82.90
22006;DHT22;11167;46.988;15.470;2023-02-04T12:28:17;9.40;82.80
22006;DHT22;11167;46.988;15.470;2023-02-04T12:30:19;9.50;83.10
22006;DHT22;11167;46.988;15.470;2023-02-04T12:32:20;9.50;82.90
22006;DHT22;11167;46.988;15.470;2023-02-04T12:34:21;9.50;82.70
22006;DHT22;11167;46.988;15.470;2023-02-04T12:36:23;9.60;82.70
22006;DHT22;11167;46.988;15.470;2023-02-04T12:38:24;9.60;82.60
22006;DHT22;11167;46.988;15.470;2023-02-04T12:40:27;9.60;82.60
22006;DHT22;11167;46.988;15.470;2023-02-04T12:42:28;9.70;82.80
22006;DHT22;11167;46.988;15.470;2023-02-04T12:44:30;9.70;83.10
22006;DHT22;11167;46.988;15.470;2023-02-04T12:46:31;9.70;83.00
22006;DHT22;11167;46.988;15.470;2023-02-04T12:48:32;9.80;83.20
22006;DHT22;11167;46.988;15.470;2023-02-04T12:50:33;9.80;83.30
22006;DHT22;11167;46.988;15.470;2023-02-04T12:52:34;9.80;83.10
22006;DHT22;11167;46.988;15.470;2023-02-04T12:54:39;9.90;83.20
22006;DHT22;11167;46.988;15.470;2023-02-04T12:56:40;9.90;83.40
22006;DHT22;11167;46.988;15.470;2023-02-04T12:58:41;9.90;82.80
22006;DHT22;11167;46.988;15.470;2023-02-04T13:00:42;10.00;82.90
22006;DHT22;11167;46.988;15.470;2023-02-04T13:02:45;10.00;83.00